createdAt,value
2018-05-06T00:01:02.166Z,0
2018-05-06T00:02:04.891Z,0
2018-05-06T00:03:07.340Z,0
2018-05-06T00:04:09.779Z,0
2018-05-06T00:05:12.524Z,0
2018-05-06T00:06:14.985Z,0
2018-05-06T00:07:17.424Z,0
2018-05-06T00:08:19.877Z,0
2018-05-06T00:09:22.601Z,0
2018-05-06T00:10:25.459Z,0
2018-05-06T00:11:27.914Z,0
2018-05-06T00:12:30.349Z,0
2018-05-06T00:13:33.180Z,0
2018-05-06T00:14:35.922Z,0
2018-05-06T00:15:38.358Z,0
2018-05-06T00:16:41.187Z,0
2018-05-06T00:17:43.937Z,0
2018-05-06T00:18:46.665Z,0
2018-05-06T00:19:49.111Z,0
2018-05-06T00:20:51.558Z,0
2018-05-06T00:21:54.014Z,0
2018-05-06T00:22:56.455Z,0
2018-05-06T00:23:58.917Z,0
2018-05-06T00:25:01.754Z,0
2018-05-06T00:26:04.203Z,0
2018-05-06T00:27:06.659Z,0
2018-05-06T00:28:09.094Z,0
2018-05-06T00:29:11.821Z,0
2018-05-06T00:30:14.275Z,0
2018-05-06T00:31:16.734Z,0
2018-05-06T00:32:19.183Z,0
2018-05-06T00:33:21.619Z,0
2018-05-06T00:34:24.050Z,0
2018-05-06T00:35:26.499Z,0
2018-05-06T00:36:29.335Z,0
2018-05-06T00:37:31.777Z,0
2018-05-06T00:38:34.223Z,0
2018-05-06T00:39:36.683Z,0
2018-05-06T00:40:39.131Z,0
2018-05-06T00:41:41.579Z,0
2018-05-06T00:42:44.016Z,0
2018-05-06T00:43:46.764Z,0
2018-05-06T00:44:49.621Z,0
2018-05-06T00:45:52.058Z,0
2018-05-06T00:46:54.792Z,0
2018-05-06T00:47:57.531Z,0
2018-05-06T00:48:59.964Z,0
2018-05-06T00:50:03.118Z,0
2018-05-06T00:51:05.560Z,0
2018-05-06T00:52:08.013Z,0
2018-05-06T00:53:10.452Z,0
2018-05-06T00:54:12.893Z,0
2018-05-06T00:55:15.351Z,0
2018-05-06T00:56:18.144Z,0
2018-05-06T00:57:20.908Z,0
2018-05-06T00:58:23.348Z,0
2018-05-06T00:59:26.075Z,0
2018-05-06T01:00:28.522Z,0
2018-05-06T01:01:30.973Z,0
2018-05-06T01:02:34.089Z,0
2018-05-06T01:03:36.536Z,0
2018-05-06T01:04:38.991Z,0
2018-05-06T01:05:41.725Z,0
2018-05-06T01:06:44.170Z,0
2018-05-06T01:07:46.614Z,0
2018-05-06T01:08:49.337Z,0
2018-05-06T01:09:51.793Z,0
2018-05-06T01:10:54.237Z,0
2018-05-06T01:11:56.663Z,0
2018-05-06T01:12:59.136Z,0
2018-05-06T01:14:01.859Z,0
2018-05-06T01:15:04.303Z,0
2018-05-06T01:16:06.749Z,0
2018-05-06T01:17:09.217Z,0
2018-05-06T01:18:11.658Z,0
2018-05-06T01:19:14.097Z,0
2018-05-06T01:20:16.557Z,0
2018-05-06T01:21:18.987Z,0
2018-05-06T01:22:21.430Z,0
2018-05-06T01:23:23.879Z,0
2018-05-06T01:24:27.025Z,0
2018-05-06T01:25:29.485Z,0
2018-05-06T01:26:31.918Z,0
2018-05-06T01:27:34.358Z,0
2018-05-06T01:28:36.787Z,0
2018-05-06T01:29:39.503Z,0
2018-05-06T01:30:41.943Z,0
2018-05-06T01:31:44.383Z,0
2018-05-06T01:32:46.836Z,0
2018-05-06T01:33:49.267Z,0
2018-05-06T01:34:51.722Z,0
2018-05-06T01:35:54.151Z,0
2018-05-06T01:36:56.891Z,0
2018-05-06T01:37:59.317Z,0
2018-05-06T01:39:01.768Z,0
2018-05-06T01:40:04.291Z,0
2018-05-06T01:41:07.397Z,0
2018-05-06T01:42:09.839Z,0
2018-05-06T01:43:12.269Z,0
2018-05-06T01:44:14.712Z,0
2018-05-06T01:45:17.154Z,0
2018-05-06T01:46:19.586Z,0
2018-05-06T01:47:22.039Z,0
2018-05-06T01:48:24.480Z,0
2018-05-06T01:49:26.918Z,0
2018-05-06T01:50:29.353Z,0
2018-05-06T01:51:31.799Z,0
2018-05-06T01:52:34.224Z,0
2018-05-06T01:53:36.676Z,0
2018-05-06T01:54:39.123Z,0
2018-05-06T01:55:41.557Z,0
2018-05-06T01:56:44.002Z,0
2018-05-06T01:57:46.445Z,0
2018-05-06T01:58:48.874Z,0
2018-05-06T01:59:51.335Z,0
2018-05-06T02:00:54.855Z,0
2018-05-06T02:01:57.684Z,0
2018-05-06T02:03:00.119Z,0
2018-05-06T02:04:02.574Z,0
2018-05-06T02:05:05.009Z,0
2018-05-06T02:06:07.779Z,0
2018-05-06T02:07:10.499Z,0
2018-05-06T02:08:12.936Z,0
2018-05-06T02:09:15.372Z,0
2018-05-06T02:10:17.803Z,0
2018-05-06T02:11:20.235Z,0
2018-05-06T02:12:22.971Z,0
2018-05-06T02:13:25.400Z,0
2018-05-06T02:14:27.853Z,0
2018-05-06T02:15:30.288Z,0
2018-05-06T02:16:32.731Z,0
2018-05-06T02:17:35.167Z,0
2018-05-06T02:18:37.616Z,0
2018-05-06T02:19:40.049Z,0
2018-05-06T02:20:42.477Z,0
2018-05-06T02:21:44.915Z,0
2018-05-06T02:22:47.348Z,0
2018-05-06T02:23:49.791Z,0
2018-05-06T02:24:52.230Z,0
2018-05-06T02:25:54.957Z,0
2018-05-06T02:26:57.774Z,0
2018-05-06T02:28:00.222Z,0
2018-05-06T02:29:02.945Z,0
2018-05-06T02:30:05.376Z,0
2018-05-06T02:31:07.806Z,0
2018-05-06T02:32:10.538Z,0
2018-05-06T02:33:13.349Z,0
2018-05-06T02:34:15.786Z,0
2018-05-06T02:35:18.212Z,0
2018-05-06T02:36:21.218Z,0
2018-05-06T02:37:23.954Z,0
2018-05-06T02:38:26.973Z,0
2018-05-06T02:39:29.990Z,0
2018-05-06T02:40:32.440Z,0
2018-05-06T02:41:35.547Z,0
2018-05-06T02:42:38.287Z,0
2018-05-06T02:43:41.009Z,0
2018-05-06T02:44:43.816Z,0
2018-05-06T02:45:46.565Z,0
2018-05-06T02:46:49.033Z,0
2018-05-06T02:47:51.452Z,0
2018-05-06T02:48:54.187Z,0
2018-05-06T02:49:56.636Z,0
2018-05-06T02:50:59.083Z,0
2018-05-06T02:52:02.209Z,0
2018-05-06T02:53:04.645Z,0
2018-05-06T02:54:07.092Z,0
2018-05-06T02:55:09.526Z,0
2018-05-06T02:56:11.955Z,0
2018-05-06T02:57:14.397Z,0
2018-05-06T02:58:17.497Z,0
2018-05-06T02:59:19.940Z,0
2018-05-06T03:00:22.655Z,0
2018-05-06T03:01:25.084Z,0
2018-05-06T03:02:27.524Z,0
2018-05-06T03:03:30.342Z,0
2018-05-06T03:04:32.782Z,0
2018-05-06T03:05:35.218Z,0
2018-05-06T03:06:37.660Z,0
2018-05-06T03:07:40.085Z,0
2018-05-06T03:08:42.526Z,0
2018-05-06T03:09:44.959Z,0
2018-05-06T03:10:47.666Z,0
2018-05-06T03:11:50.422Z,0
2018-05-06T03:12:53.135Z,0
2018-05-06T03:13:55.581Z,0
2018-05-06T03:14:58.016Z,0
2018-05-06T03:16:00.750Z,0
2018-05-06T03:17:03.184Z,0
2018-05-06T03:18:06.011Z,0
2018-05-06T03:19:08.438Z,0
2018-05-06T03:20:10.865Z,0
2018-05-06T03:21:13.303Z,1
2018-05-06T03:22:15.744Z,1
2018-05-06T03:23:18.159Z,1
2018-05-06T03:24:20.892Z,1
2018-05-06T03:25:23.341Z,1
2018-05-06T03:26:25.767Z,1
2018-05-06T03:27:28.210Z,1
2018-05-06T03:28:30.936Z,1
2018-05-06T03:29:33.667Z,2
2018-05-06T03:30:36.682Z,2
2018-05-06T03:31:39.424Z,2
2018-05-06T03:32:41.846Z,2
2018-05-06T03:33:44.297Z,2
2018-05-06T03:34:46.717Z,2
2018-05-06T03:35:49.158Z,3
2018-05-06T03:36:51.591Z,3
2018-05-06T03:37:54.315Z,3
2018-05-06T03:38:56.750Z,3
2018-05-06T03:39:59.182Z,4
2018-05-06T03:41:01.907Z,4
2018-05-06T03:42:04.738Z,4
2018-05-06T03:43:07.177Z,4
2018-05-06T03:44:09.621Z,5
2018-05-06T03:45:12.052Z,5
2018-05-06T03:46:14.496Z,5
2018-05-06T03:47:16.932Z,5
2018-05-06T03:48:19.364Z,6
2018-05-06T03:49:21.807Z,6
2018-05-06T03:50:24.244Z,6
2018-05-06T03:51:26.974Z,6
2018-05-06T03:52:29.407Z,7
2018-05-06T03:53:31.849Z,7
2018-05-06T03:54:34.294Z,7
2018-05-06T03:55:36.727Z,7
2018-05-06T03:56:39.160Z,8
2018-05-06T03:57:41.591Z,8
2018-05-06T03:58:44.040Z,8
2018-05-06T03:59:46.472Z,9
2018-05-06T04:00:49.488Z,9
2018-05-06T04:01:51.919Z,9
2018-05-06T04:02:54.661Z,10
2018-05-06T04:03:57.098Z,10
2018-05-06T04:04:59.921Z,10
2018-05-06T04:06:02.359Z,10
2018-05-06T04:07:04.794Z,11
2018-05-06T04:08:07.234Z,11
2018-05-06T04:09:09.677Z,11
2018-05-06T04:10:12.104Z,12
2018-05-06T04:11:14.540Z,12
2018-05-06T04:12:16.977Z,12
2018-05-06T04:13:19.419Z,13
2018-05-06T04:14:21.856Z,13
2018-05-06T04:15:24.292Z,13
2018-05-06T04:16:26.729Z,13
2018-05-06T04:17:29.471Z,14
2018-05-06T04:18:32.482Z,14
2018-05-06T04:19:34.917Z,14
2018-05-06T04:20:37.350Z,15
2018-05-06T04:21:39.786Z,15
2018-05-06T04:22:42.502Z,15
2018-05-06T04:23:44.945Z,15
2018-05-06T04:24:47.375Z,16
2018-05-06T04:25:50.132Z,16
2018-05-06T04:26:52.621Z,16
2018-05-06T04:27:55.005Z,16
2018-05-06T04:28:57.438Z,17
2018-05-06T04:30:00.171Z,17
2018-05-06T04:31:02.601Z,17
2018-05-06T04:32:05.041Z,17
2018-05-06T04:33:07.487Z,18
2018-05-06T04:34:09.907Z,18
2018-05-06T04:35:12.351Z,18
2018-05-06T04:36:15.074Z,18
2018-05-06T04:37:17.514Z,19
2018-05-06T04:38:19.943Z,19
2018-05-06T04:39:22.389Z,19
2018-05-06T04:40:24.819Z,19
2018-05-06T04:41:27.265Z,20
2018-05-06T04:42:29.707Z,20
2018-05-06T04:43:32.134Z,20
2018-05-06T04:44:34.657Z,20
2018-05-06T04:45:37.316Z,20
2018-05-06T04:46:40.034Z,20
2018-05-06T04:47:42.480Z,20
2018-05-06T04:48:45.184Z,20
2018-05-06T04:49:47.628Z,20
2018-05-06T04:50:50.391Z,21
2018-05-06T04:51:52.826Z,21
2018-05-06T04:52:55.614Z,21
2018-05-06T04:53:58.271Z,21
2018-05-06T04:55:00.708Z,22
2018-05-06T04:56:03.447Z,22
2018-05-06T04:57:06.159Z,22
2018-05-06T04:58:08.604Z,22
2018-05-06T04:59:11.037Z,22
2018-05-06T05:00:13.486Z,23
2018-05-06T05:01:15.925Z,23
2018-05-06T05:02:18.368Z,23
2018-05-06T05:03:21.112Z,23
2018-05-06T05:04:23.588Z,24
2018-05-06T05:05:25.990Z,24
2018-05-06T05:06:28.819Z,24
2018-05-06T05:07:31.540Z,24
2018-05-06T05:08:33.983Z,24
2018-05-06T05:09:36.461Z,25
2018-05-06T05:10:38.862Z,25
2018-05-06T05:11:41.307Z,25
2018-05-06T05:12:43.740Z,25
2018-05-06T05:13:46.177Z,25
2018-05-06T05:14:48.919Z,26
2018-05-06T05:15:51.362Z,26
2018-05-06T05:16:53.874Z,26
2018-05-06T05:17:56.239Z,26
2018-05-06T05:18:58.678Z,26
2018-05-06T05:20:01.684Z,27
2018-05-06T05:21:04.122Z,27
2018-05-06T05:22:06.578Z,27
2018-05-06T05:23:09.011Z,27
2018-05-06T05:24:11.441Z,27
2018-05-06T05:25:13.883Z,28
2018-05-06T05:26:16.314Z,28
2018-05-06T05:27:19.042Z,28
2018-05-06T05:28:21.478Z,28
2018-05-06T05:29:23.912Z,28
2018-05-06T05:30:26.346Z,28
2018-05-06T05:31:29.183Z,29
2018-05-06T05:32:31.622Z,29
2018-05-06T05:33:34.064Z,29
2018-05-06T05:34:36.902Z,29
2018-05-06T05:35:39.336Z,29
2018-05-06T05:36:41.777Z,29
2018-05-06T05:37:44.220Z,29
2018-05-06T05:38:46.648Z,30
2018-05-06T05:39:49.089Z,30
2018-05-06T05:40:51.525Z,30
2018-05-06T05:41:54.247Z,30
2018-05-06T05:42:56.973Z,30
2018-05-06T05:43:59.418Z,31
2018-05-06T05:45:02.136Z,31
2018-05-06T05:46:04.579Z,31
2018-05-06T05:47:07.026Z,31
2018-05-06T05:48:09.735Z,31
2018-05-06T05:49:12.470Z,31
2018-05-06T05:50:14.907Z,32
2018-05-06T05:51:17.351Z,32
2018-05-06T05:52:19.788Z,32
2018-05-06T05:53:22.221Z,32
2018-05-06T05:54:24.657Z,32
2018-05-06T05:55:27.108Z,32
2018-05-06T05:56:29.541Z,32
2018-05-06T05:57:31.982Z,32
2018-05-06T05:58:34.425Z,32
2018-05-06T05:59:37.447Z,32
2018-05-06T06:00:39.884Z,32
2018-05-06T06:01:42.616Z,32
2018-05-06T06:02:45.445Z,32
2018-05-06T06:03:47.883Z,33
2018-05-06T06:04:50.328Z,33
2018-05-06T06:05:52.771Z,33
2018-05-06T06:06:55.483Z,33
2018-05-06T06:07:57.925Z,33
2018-05-06T06:09:00.368Z,33
2018-05-06T06:10:03.193Z,33
2018-05-06T06:11:06.024Z,34
2018-05-06T06:12:08.460Z,34
2018-05-06T06:13:10.901Z,34
2018-05-06T06:14:13.359Z,34
2018-05-06T06:15:15.791Z,34
2018-05-06T06:16:18.236Z,34
2018-05-06T06:17:20.677Z,35
2018-05-06T06:18:23.123Z,35
2018-05-06T06:19:25.836Z,35
2018-05-06T06:20:28.294Z,35
2018-05-06T06:21:30.742Z,35
2018-05-06T06:22:33.181Z,35
2018-05-06T06:23:35.624Z,35
2018-05-06T06:24:38.129Z,35
2018-05-06T06:25:40.502Z,36
2018-05-06T06:26:42.953Z,36
2018-05-06T06:27:45.391Z,36
2018-05-06T06:28:47.829Z,36
2018-05-06T06:29:50.265Z,36
2018-05-06T06:30:52.710Z,36
2018-05-06T06:31:55.142Z,37
2018-05-06T06:32:57.920Z,37
2018-05-06T06:34:00.657Z,37
2018-05-06T06:35:03.093Z,37
2018-05-06T06:36:05.534Z,37
2018-05-06T06:37:07.978Z,37
2018-05-06T06:38:10.414Z,37
2018-05-06T06:39:12.864Z,38
2018-05-06T06:40:15.296Z,38
2018-05-06T06:41:17.740Z,38
2018-05-06T06:42:20.473Z,38
2018-05-06T06:43:22.926Z,38
2018-05-06T06:44:25.654Z,38
2018-05-06T06:45:28.096Z,38
2018-05-06T06:46:30.927Z,39
2018-05-06T06:47:33.354Z,39
2018-05-06T06:48:35.804Z,39
2018-05-06T06:49:38.246Z,39
2018-05-06T06:50:40.697Z,39
2018-05-06T06:51:43.140Z,39
2018-05-06T06:52:45.586Z,39
2018-05-06T06:53:48.024Z,40
2018-05-06T06:54:51.050Z,40
2018-05-06T06:55:53.496Z,40
2018-05-06T06:56:55.930Z,40
2018-05-06T06:57:58.377Z,40
2018-05-06T06:59:01.127Z,40
2018-05-06T07:00:03.559Z,40
2018-05-06T07:01:06.001Z,41
2018-05-06T07:02:08.436Z,41
2018-05-06T07:03:10.884Z,41
2018-05-06T07:04:13.326Z,41
2018-05-06T07:05:16.157Z,41
2018-05-06T07:06:18.600Z,41
2018-05-06T07:07:21.049Z,41
2018-05-06T07:08:23.883Z,42
2018-05-06T07:09:27.049Z,42
2018-05-06T07:10:29.487Z,42
2018-05-06T07:11:32.505Z,42
2018-05-06T07:12:34.956Z,42
2018-05-06T07:13:37.400Z,42
2018-05-06T07:14:39.844Z,42
2018-05-06T07:15:42.288Z,43
2018-05-06T07:16:44.723Z,43
2018-05-06T07:17:47.173Z,43
2018-05-06T07:18:49.894Z,43
2018-05-06T07:19:52.343Z,43
2018-05-06T07:20:54.798Z,43
2018-05-06T07:21:57.247Z,44
2018-05-06T07:22:59.694Z,44
2018-05-06T07:24:02.498Z,44
2018-05-06T07:25:04.869Z,44
2018-05-06T07:26:07.877Z,44
2018-05-06T07:27:10.314Z,44
2018-05-06T07:28:12.764Z,44
2018-05-06T07:29:15.202Z,45
2018-05-06T07:30:17.993Z,45
2018-05-06T07:31:21.099Z,45
2018-05-06T07:32:23.544Z,45
2018-05-06T07:33:26.368Z,46
2018-05-06T07:34:28.816Z,46
2018-05-06T07:35:31.257Z,46
2018-05-06T07:36:33.711Z,46
2018-05-06T07:37:36.152Z,46
2018-05-06T07:38:38.596Z,46
2018-05-06T07:39:41.040Z,46
2018-05-06T07:40:43.487Z,47
2018-05-06T07:41:45.929Z,47
2018-05-06T07:42:48.368Z,47
2018-05-06T07:43:50.805Z,47
2018-05-06T07:44:53.577Z,47
2018-05-06T07:45:56.012Z,47
2018-05-06T07:46:58.791Z,48
2018-05-06T07:48:01.239Z,48
2018-05-06T07:49:04.016Z,48
2018-05-06T07:50:06.396Z,48
2018-05-06T07:51:09.125Z,49
2018-05-06T07:52:11.575Z,49
2018-05-06T07:53:14.013Z,49
2018-05-06T07:54:16.748Z,49
2018-05-06T07:55:19.191Z,49
2018-05-06T07:56:21.942Z,49
2018-05-06T07:57:24.418Z,49
2018-05-06T07:58:27.451Z,50
2018-05-06T07:59:30.179Z,49
2018-05-06T08:00:32.631Z,50
2018-05-06T08:01:35.064Z,50
2018-05-06T08:02:37.508Z,50
2018-05-06T08:03:40.244Z,50
2018-05-06T08:04:42.686Z,50
2018-05-06T08:05:45.130Z,50
2018-05-06T08:06:47.586Z,51
2018-05-06T08:07:50.021Z,51
2018-05-06T08:08:52.482Z,51
2018-05-06T08:09:55.225Z,157
2018-05-06T08:10:58.067Z,267
2018-05-06T08:12:00.516Z,192
2018-05-06T08:13:03.260Z,81
2018-05-06T08:14:05.706Z,57
2018-05-06T08:15:08.150Z,56
2018-05-06T08:16:10.601Z,63
2018-05-06T08:17:13.052Z,107
2018-05-06T08:18:15.476Z,111
2018-05-06T08:19:17.925Z,118
2018-05-06T08:20:20.389Z,193
2018-05-06T08:21:22.828Z,346
2018-05-06T08:22:25.278Z,416
2018-05-06T08:23:28.009Z,425
2018-05-06T08:24:30.446Z,423
2018-05-06T08:25:33.184Z,435
2018-05-06T08:26:35.634Z,402
2018-05-06T08:27:38.073Z,380
2018-05-06T08:28:40.811Z,400
2018-05-06T08:29:43.261Z,428
2018-05-06T08:30:45.820Z,484
2018-05-06T08:31:48.259Z,481
2018-05-06T08:32:50.701Z,440
2018-05-06T08:33:53.468Z,462
2018-05-06T08:34:56.209Z,438
2018-05-06T08:35:58.655Z,435
2018-05-06T08:37:01.094Z,463
2018-05-06T08:38:03.829Z,499
2018-05-06T08:39:06.579Z,488
2018-05-06T08:40:09.030Z,464
2018-05-06T08:41:11.475Z,457
2018-05-06T08:42:13.904Z,392
2018-05-06T08:43:16.358Z,398
2018-05-06T08:44:18.809Z,454
2018-05-06T08:45:21.260Z,420
2018-05-06T08:46:23.716Z,445
2018-05-06T08:47:26.150Z,459
2018-05-06T08:48:28.596Z,473
2018-05-06T08:49:31.039Z,458
2018-05-06T08:50:33.492Z,456
2018-05-06T08:51:35.935Z,497
2018-05-06T08:52:42.339Z,532
2018-05-06T08:53:52.516Z,512
2018-05-06T08:54:57.200Z,504
2018-05-06T08:56:00.442Z,565
2018-05-06T08:57:02.982Z,519
2018-05-06T08:58:05.962Z,515
2018-05-06T08:59:09.007Z,490
2018-05-06T09:00:12.268Z,456
2018-05-06T09:01:29.040Z,487
2018-05-06T09:02:48.255Z,447
2018-05-06T09:04:08.864Z,483
2018-05-06T09:05:27.370Z,471
2018-05-06T09:06:41.986Z,509
2018-05-06T09:08:00.566Z,493
2018-05-06T09:09:19.622Z,545
2018-05-06T09:10:38.349Z,542
2018-05-06T09:12:00.499Z,550
2018-05-06T09:13:19.229Z,564
2018-05-06T09:14:37.150Z,525
2018-05-06T09:15:56.005Z,486
2018-05-06T09:17:12.756Z,587
2018-05-06T09:18:25.508Z,566
2018-05-06T13:41:10.812Z,356
2018-05-06T13:42:12.853Z,322
2018-05-06T13:43:14.902Z,327
2018-05-06T13:44:16.944Z,333
2018-05-06T13:45:19.398Z,336
2018-05-06T13:46:21.449Z,331
2018-05-06T13:47:24.160Z,346
2018-05-06T13:48:26.249Z,368
2018-05-06T13:49:28.309Z,375
2018-05-06T13:50:31.692Z,339
2018-05-06T13:51:33.859Z,314
2018-05-06T13:52:35.926Z,304
2018-05-06T13:53:38.069Z,335
2018-05-06T13:54:40.347Z,368
2018-05-06T13:55:42.463Z,358
2018-05-06T13:56:44.500Z,364
2018-05-06T13:57:46.557Z,342
2018-05-06T13:58:48.615Z,364
2018-05-06T13:59:50.659Z,350
2018-05-06T14:00:53.103Z,309
2018-05-06T14:01:55.152Z,301
2018-05-06T14:02:57.201Z,289
2018-05-06T14:03:59.252Z,311
2018-05-06T14:05:01.311Z,288
2018-05-06T14:06:03.363Z,271
2018-05-06T14:07:05.423Z,270
2018-05-06T14:08:07.855Z,277
2018-05-06T14:09:10.310Z,316
2018-05-06T14:10:12.356Z,308
2018-05-06T14:11:14.694Z,280
2018-05-06T14:12:17.432Z,274
2018-05-06T14:13:19.490Z,297
2018-05-06T14:14:21.572Z,312
2018-05-06T14:15:23.675Z,300
2018-05-06T14:16:25.840Z,334
2018-05-06T14:17:28.049Z,320
2018-05-06T14:18:30.476Z,266
2018-05-06T14:19:32.524Z,261
2018-05-06T14:20:34.583Z,257
2018-05-06T14:21:37.071Z,280
2018-05-06T14:22:39.090Z,314
2018-05-06T14:23:41.153Z,302
2018-05-06T14:24:43.219Z,271
2018-05-06T14:25:45.676Z,294
2018-05-06T14:26:48.330Z,297
2018-05-06T14:27:50.391Z,288
2018-05-06T14:28:52.753Z,280
2018-05-06T14:29:55.106Z,314
2018-05-06T14:30:57.463Z,303
2018-05-06T14:31:59.522Z,318
2018-05-06T14:33:01.587Z,324
2018-05-06T14:34:03.657Z,309
2018-05-06T14:35:05.721Z,280
2018-05-06T14:36:07.790Z,259
2018-05-06T14:37:09.854Z,250
2018-05-06T14:38:12.216Z,253
2018-05-06T14:39:14.280Z,243
2018-05-06T14:40:16.731Z,249
2018-05-06T14:41:18.821Z,266
2018-05-06T14:42:20.887Z,272
2018-05-06T14:43:22.949Z,270
2018-05-06T14:44:25.020Z,258
2018-05-06T14:45:27.083Z,277
2018-05-06T14:46:29.150Z,271
2018-05-06T14:47:31.602Z,275
2018-05-06T14:48:34.162Z,296
2018-05-06T14:49:36.172Z,264
2018-05-06T14:50:38.222Z,246
2018-05-06T14:51:40.577Z,285
2018-05-06T14:52:42.641Z,287
2018-05-06T14:53:44.703Z,292
2018-05-06T14:54:46.769Z,281
2018-05-06T14:55:48.837Z,278
2018-05-06T14:56:50.895Z,267
2018-05-06T14:57:52.970Z,260
2018-05-06T14:58:55.024Z,273
2018-05-06T14:59:57.075Z,278
2018-05-06T15:00:59.136Z,248
2018-05-06T15:02:01.215Z,278
2018-05-06T15:03:03.280Z,280
2018-05-06T15:04:05.341Z,270
2018-05-06T15:05:07.414Z,260
2018-05-06T15:06:09.482Z,254
2018-05-06T15:07:11.833Z,246
2018-05-06T15:08:13.896Z,253
2018-05-06T15:09:15.967Z,272
2018-05-06T15:10:18.047Z,271
2018-05-06T15:11:20.097Z,251
2018-05-06T15:12:22.167Z,239
2018-05-06T15:13:24.247Z,239
2018-05-06T15:14:26.314Z,233
2018-05-06T15:15:28.380Z,234
2018-05-06T15:16:30.451Z,234
2018-05-06T15:17:32.523Z,199
2018-05-06T15:18:34.940Z,221
2018-05-06T15:19:37.318Z,205
2018-05-06T15:20:39.384Z,201
2018-05-06T15:21:41.457Z,208
2018-05-06T15:22:43.523Z,199
2018-05-06T15:23:45.587Z,200
2018-05-06T15:24:47.659Z,212
2018-05-06T15:25:49.718Z,216
2018-05-06T15:26:52.172Z,225
2018-05-06T15:27:54.523Z,230
2018-05-06T15:28:56.592Z,219
2018-05-06T15:29:58.659Z,219
2018-05-06T15:31:00.717Z,208
2018-05-06T15:32:03.077Z,198
2018-05-06T15:33:05.445Z,196
2018-05-06T15:34:07.516Z,164
2018-05-06T15:35:09.580Z,167
2018-05-06T15:36:11.653Z,181
2018-05-06T15:37:13.721Z,187
2018-05-06T15:38:15.782Z,189
2018-05-06T15:39:17.851Z,195
2018-05-06T15:40:19.912Z,185
2018-05-06T15:41:21.984Z,158
2018-05-06T15:42:24.450Z,168
2018-05-06T15:43:26.509Z,163
2018-05-06T15:44:28.864Z,155
2018-05-06T15:45:31.317Z,169
2018-05-06T15:46:33.387Z,169
2018-05-06T15:47:35.464Z,187
2018-05-06T15:48:37.529Z,194
2018-05-06T15:49:39.891Z,182
2018-05-06T15:50:41.964Z,191
2018-05-06T15:51:44.020Z,179
2018-05-06T15:52:46.091Z,174
2018-05-06T15:53:48.161Z,174
2018-05-06T15:54:50.234Z,174
2018-05-06T15:55:52.312Z,186
2018-05-06T15:56:54.376Z,192
2018-05-06T15:57:56.451Z,176
2018-05-06T15:58:58.522Z,176
2018-05-06T16:00:00.962Z,171
2018-05-06T16:01:02.958Z,157
2018-05-06T16:02:05.333Z,157
2018-05-06T16:03:07.689Z,144
2018-05-06T16:04:10.152Z,140
2018-05-06T16:05:12.220Z,146
2018-05-06T16:06:14.290Z,142
2018-05-06T16:07:16.361Z,133
2018-05-06T16:08:18.426Z,134
2018-05-06T16:09:20.497Z,136
2018-05-06T16:10:22.563Z,130
2018-05-06T16:11:24.920Z,130
2018-05-06T16:12:26.997Z,135
2018-05-06T16:13:29.070Z,134
2018-05-06T16:14:31.146Z,131
2018-05-06T16:15:33.208Z,122
2018-05-06T16:16:35.281Z,124
2018-05-06T16:17:37.369Z,129
2018-05-06T16:18:39.409Z,129
2018-05-06T16:19:41.480Z,131
2018-05-06T16:20:43.539Z,125
2018-05-06T16:21:45.613Z,124
2018-05-06T16:22:47.684Z,122
2018-05-06T16:23:49.748Z,123
2018-05-06T16:24:52.110Z,122
2018-05-06T16:25:54.171Z,122
2018-05-06T16:26:56.239Z,127
2018-05-06T16:27:58.596Z,130
2018-05-06T16:29:00.948Z,129
2018-05-06T16:30:03.604Z,127
2018-05-06T16:31:05.668Z,125
2018-05-06T16:32:07.731Z,111
2018-05-06T16:33:09.811Z,101
2018-05-06T16:34:11.876Z,101
2018-05-06T16:35:13.952Z,102
2018-05-06T16:36:16.020Z,108
2018-05-06T16:37:18.092Z,109
2018-05-06T16:38:20.157Z,108
2018-05-06T16:39:22.218Z,102
2018-05-06T16:40:24.284Z,96
2018-05-06T16:41:26.348Z,98
2018-05-06T16:42:28.411Z,102
2018-05-06T16:43:30.478Z,102
2018-05-06T16:44:32.542Z,101
2018-05-06T16:45:34.613Z,102
2018-05-06T16:46:36.673Z,98
2018-05-06T16:47:39.128Z,97
2018-05-06T16:48:41.216Z,96
2018-05-06T16:49:43.562Z,95
2018-05-06T16:50:45.635Z,96
2018-05-06T16:51:47.702Z,97
2018-05-06T16:52:49.778Z,98
2018-05-06T16:53:51.850Z,97
2018-05-06T16:54:53.917Z,93
2018-05-06T16:55:55.973Z,86
2018-05-06T16:56:58.423Z,81
2018-05-06T16:58:00.489Z,79
2018-05-06T16:59:02.555Z,77
2018-05-06T17:00:04.614Z,72
2018-05-06T17:01:06.695Z,69
2018-05-06T17:02:08.751Z,65
2018-05-06T17:03:11.213Z,64
2018-05-06T17:04:13.281Z,64
2018-05-06T17:05:15.343Z,63
2018-05-06T17:06:17.792Z,61
2018-05-06T17:07:19.853Z,60
2018-05-06T17:08:21.943Z,59
2018-05-06T17:09:24.016Z,58
2018-05-06T17:10:26.085Z,58
2018-05-06T17:11:28.135Z,59
2018-05-06T17:12:30.201Z,60
2018-05-06T17:13:32.280Z,61
2018-05-06T17:14:35.058Z,59
2018-05-06T17:15:37.301Z,58
2018-05-06T17:16:39.766Z,57
2018-05-06T17:17:41.839Z,55
2018-05-06T17:18:43.907Z,54
2018-05-06T17:19:45.980Z,54
2018-05-06T17:20:48.717Z,55
2018-05-06T17:21:50.778Z,55
2018-05-06T17:22:52.842Z,54
2018-05-06T17:23:54.911Z,53
2018-05-06T17:24:56.974Z,53
2018-05-06T17:25:59.040Z,54
2018-05-06T17:27:01.383Z,49
2018-05-06T17:28:03.450Z,44
2018-05-06T17:29:05.521Z,42
2018-05-06T17:30:07.874Z,40
2018-05-06T17:31:09.936Z,39
2018-05-06T17:32:12.288Z,38
2018-05-06T17:33:14.354Z,38
2018-05-06T17:34:16.423Z,36
2018-05-06T17:35:18.489Z,35
2018-05-06T17:36:20.540Z,34
2018-05-06T17:37:22.611Z,34
2018-05-06T17:38:24.669Z,34
2018-05-06T17:39:27.016Z,33
2018-05-06T17:40:29.082Z,32
2018-05-06T17:41:31.148Z,30
2018-05-06T17:42:33.208Z,29
2018-05-06T17:43:35.271Z,27
2018-05-06T17:44:37.327Z,26
2018-05-06T17:45:39.399Z,25
2018-05-06T17:46:41.453Z,24
2018-05-06T17:47:43.524Z,24
2018-05-06T17:48:45.588Z,23
2018-05-06T17:49:47.648Z,23
2018-05-06T17:50:49.711Z,22
2018-05-06T17:51:52.157Z,22
2018-05-06T17:52:54.212Z,21
2018-05-06T17:53:56.279Z,21
2018-05-06T17:54:58.338Z,20
2018-05-06T17:56:00.410Z,19
2018-05-06T17:57:02.464Z,19
2018-05-06T17:58:04.812Z,18
2018-05-06T17:59:06.880Z,17
2018-05-06T18:00:08.939Z,16
2018-05-06T18:01:11.004Z,16
2018-05-06T18:02:13.066Z,15
2018-05-06T18:03:15.118Z,15
2018-05-06T18:04:17.191Z,14
2018-05-06T18:05:19.458Z,14
2018-05-06T18:06:21.510Z,14
2018-05-06T18:07:23.923Z,13
2018-05-06T18:08:25.904Z,13
2018-05-06T18:09:27.974Z,13
2018-05-06T18:10:30.026Z,12
2018-05-06T18:11:32.076Z,12
2018-05-06T18:12:34.417Z,12
2018-05-06T18:13:36.463Z,11
2018-05-06T18:14:38.520Z,11
2018-05-06T18:15:40.574Z,11
2018-05-06T18:16:42.640Z,10
2018-05-06T18:17:44.690Z,10
2018-05-06T18:18:46.737Z,10
2018-05-06T18:19:49.078Z,9
2018-05-06T18:20:51.431Z,9
2018-05-06T18:21:53.483Z,9
2018-05-06T18:22:55.537Z,9
2018-05-06T18:23:57.583Z,8
2018-05-06T18:24:59.948Z,8
2018-05-06T18:26:01.991Z,8
2018-05-06T18:27:04.075Z,7
2018-05-06T18:28:06.143Z,7
2018-05-06T18:29:08.577Z,7
2018-05-06T18:30:10.620Z,7
2018-05-06T18:31:12.672Z,6
2018-05-06T18:32:14.823Z,6
2018-05-06T18:33:16.834Z,6
2018-05-06T18:34:18.886Z,6
2018-05-06T18:35:21.250Z,5
2018-05-06T18:36:23.684Z,5
2018-05-06T18:37:25.719Z,5
2018-05-06T18:38:27.772Z,5
2018-05-06T18:39:29.821Z,4
2018-05-06T18:40:31.865Z,4
2018-05-06T18:41:33.917Z,4
2018-05-06T18:42:35.963Z,4
2018-05-06T18:43:38.011Z,3
2018-05-06T18:44:40.050Z,3
2018-05-06T18:45:42.101Z,3
2018-05-06T18:46:44.243Z,3
2018-05-06T18:47:46.199Z,3
2018-05-06T18:48:48.263Z,2
2018-05-06T18:49:50.299Z,2
2018-05-06T18:50:52.641Z,2
2018-05-06T18:51:54.695Z,2
2018-05-06T18:52:56.738Z,2
2018-05-06T18:53:58.791Z,1
2018-05-06T18:55:00.838Z,1
2018-05-06T18:56:03.172Z,1
2018-05-06T18:57:05.228Z,1
2018-05-06T18:58:07.572Z,1
2018-05-06T18:59:09.651Z,1
2018-05-06T19:00:11.983Z,1
2018-05-06T19:01:14.027Z,1
2018-05-06T19:02:16.075Z,0
2018-05-06T19:03:18.418Z,0
2018-05-06T19:04:20.746Z,0
2018-05-06T19:05:22.790Z,0
2018-05-06T19:06:24.835Z,0
2018-05-06T19:07:27.271Z,0
2018-05-06T19:08:29.352Z,0
2018-05-06T19:09:31.353Z,0
2018-05-06T19:10:33.413Z,0
2018-05-06T19:11:35.454Z,0
2018-05-06T19:12:37.508Z,0
2018-05-06T19:13:40.128Z,0
2018-05-06T19:14:42.173Z,0
2018-05-06T19:15:44.606Z,0
2018-05-06T19:16:46.644Z,0
2018-05-06T19:17:49.078Z,0